createdAt,value
2023-03-10T00:01:49.428Z,30.73
2023-03-10T00:04:19.095Z,30.60
2023-03-10T00:06:47.207Z,30.90
2023-03-10T00:09:15.490Z,31.17
2023-03-10T00:11:43.583Z,31.30
2023-03-10T00:14:12.154Z,31.10
2023-03-10T00:16:40.314Z,30.73
2023-03-10T00:19:08.738Z,30.63
2023-03-10T00:21:38.433Z,30.97
2023-03-10T00:24:06.849Z,30.93
2023-03-10T00:26:34.972Z,30.60
2023-03-10T00:29:02.927Z,31.00
2023-03-10T00:31:31.636Z,30.73
2023-03-10T00:34:00.615Z,31.43
2023-03-10T00:36:33.246Z,30.63
2023-03-10T00:39:05.103Z,30.13
2023-03-10T00:41:36.619Z,31.73
2023-03-10T00:44:05.243Z,30.60
2023-03-10T00:46:38.946Z,30.03
2023-03-10T00:49:07.755Z,32.10
2023-03-10T00:51:36.739Z,30.97
2023-03-10T00:54:06.738Z,30.67
2023-03-10T00:56:35.062Z,31.43
2023-03-10T00:59:10.178Z,30.93
2023-03-10T01:01:40.761Z,31.03
2023-03-10T01:04:12.560Z,31.20
2023-03-10T01:06:41.035Z,31.93
2023-03-10T01:09:10.761Z,30.67
2023-03-10T01:11:38.876Z,31.33
2023-03-10T01:14:08.971Z,31.30
2023-03-10T01:16:37.619Z,30.03
2023-03-10T01:19:06.723Z,31.27
2023-03-10T01:21:36.967Z,30.50
2023-03-10T01:24:06.199Z,32.10
2023-03-10T01:26:36.040Z,32.93
2023-03-10T01:29:04.811Z,32.23
2023-03-10T01:31:33.089Z,31.87
2023-03-10T01:34:01.391Z,30.70
2023-03-10T01:36:31.817Z,31.37
2023-03-10T01:39:00.544Z,31.77
2023-03-10T01:41:28.786Z,30.87
2023-03-10T01:44:03.415Z,31.60
2023-03-10T01:46:42.353Z,33.17
2023-03-10T01:49:27.192Z,32.53
2023-03-10T01:52:01.555Z,32.27
2023-03-10T01:54:33.938Z,32.40
2023-03-10T01:57:02.422Z,32.67
2023-03-10T01:59:33.966Z,30.63
2023-03-10T02:02:03.991Z,32.40
2023-03-10T02:04:37.737Z,31.80
2023-03-10T02:07:08.525Z,32.00
2023-03-10T02:09:40.509Z,32.30
2023-03-10T02:12:10.652Z,30.70
2023-03-10T02:14:42.574Z,32.73
2023-03-10T02:17:13.899Z,31.70
2023-03-10T02:20:08.497Z,30.87
2023-03-10T02:22:37.823Z,31.77
2023-03-10T02:25:21.195Z,30.53
2023-03-10T02:27:53.698Z,30.83
2023-03-10T02:30:25.968Z,31.07
2023-03-10T02:33:00.206Z,31.97
2023-03-10T02:35:30.713Z,30.17
2023-03-10T02:38:02.081Z,31.20
2023-03-10T02:40:33.986Z,30.83
2023-03-10T02:43:06.985Z,30.93
2023-03-10T02:45:39.598Z,30.60
2023-03-10T02:48:09.291Z,29.23
2023-03-10T02:50:39.789Z,30.73
2023-03-10T02:53:12.867Z,31.13
2023-03-10T02:55:43.283Z,31.20
2023-03-10T02:58:13.359Z,30.47
2023-03-10T03:00:47.182Z,30.57
2023-03-10T03:03:17.909Z,29.97
2023-03-10T03:05:46.045Z,31.07
2023-03-10T03:08:15.384Z,30.17
2023-03-10T03:10:43.875Z,30.17
2023-03-10T03:13:13.634Z,31.47
2023-03-10T03:15:42.013Z,30.23
2023-03-10T03:18:13.354Z,29.77
2023-03-10T03:20:42.092Z,30.83
2023-03-10T03:23:11.537Z,29.83
2023-03-10T03:25:41.839Z,29.20
2023-03-10T03:28:15.691Z,29.87
2023-03-10T03:30:46.393Z,27.03
2023-03-10T03:33:14.705Z,29.77
2023-03-10T03:35:45.218Z,30.50
2023-03-10T03:38:13.702Z,29.20
2023-03-10T03:40:42.517Z,29.83
2023-03-10T03:43:15.046Z,30.20
2023-03-10T03:45:43.401Z,29.50
2023-03-10T03:48:14.001Z,30.10
2023-03-10T03:50:42.330Z,30.03
2023-03-10T03:53:10.407Z,29.93
2023-03-10T03:55:38.501Z,28.80
2023-03-10T03:58:06.436Z,28.87
2023-03-10T04:00:35.957Z,30.17
2023-03-10T04:03:04.583Z,30.67
2023-03-10T04:05:32.950Z,29.30
2023-03-10T04:08:01.199Z,32.30
2023-03-10T04:10:29.998Z,29.40
2023-03-10T04:12:58.770Z,27.87
2023-03-10T04:15:27.235Z,31.53
2023-03-10T04:17:58.139Z,29.67
2023-03-10T04:20:26.750Z,29.70
2023-03-10T04:22:55.023Z,29.20
2023-03-10T04:25:34.469Z,29.57
2023-03-10T04:28:03.007Z,29.00
2023-03-10T04:30:31.584Z,27.80
2023-03-10T04:41:01.442Z,29.10
2023-03-10T04:43:33.425Z,28.73
2023-03-10T04:46:02.154Z,27.97
2023-03-10T05:31:29.562Z,29.20
2023-03-10T05:33:57.717Z,29.17
2023-03-10T05:36:25.700Z,30.17
2023-03-10T05:38:53.900Z,29.20
2023-03-10T05:41:22.058Z,31.90
2023-03-10T05:43:50.532Z,30.63
2023-03-10T05:46:18.753Z,32.23
2023-03-10T05:48:48.252Z,33.00
2023-03-10T05:51:16.641Z,31.43
2023-03-10T05:53:45.037Z,29.00
2023-03-10T05:56:15.505Z,33.50
2023-03-10T05:58:43.987Z,29.73
2023-03-10T06:01:14.164Z,32.23
2023-03-10T06:03:42.729Z,31.17
2023-03-10T06:06:13.279Z,30.10
2023-03-10T06:08:43.099Z,34.80
2023-03-10T06:11:11.687Z,27.47
2023-03-10T06:13:39.871Z,31.97
2023-03-10T06:16:09.261Z,28.17
2023-03-10T06:18:37.300Z,26.93
2023-03-10T06:21:09.458Z,25.37
2023-03-10T06:23:44.459Z,26.13
2023-03-10T06:26:15.182Z,28.70
2023-03-10T06:28:45.789Z,27.63
2023-03-10T06:31:18.655Z,27.63
2023-03-10T06:33:47.203Z,27.03
2023-03-10T06:36:17.839Z,25.60
2023-03-10T06:38:48.230Z,26.87
2023-03-10T06:41:17.648Z,29.90
2023-03-10T06:43:46.526Z,24.80
2023-03-10T06:46:16.303Z,25.47
2023-03-10T06:48:46.421Z,24.90
2023-03-10T06:51:17.922Z,24.50
2023-03-10T06:53:49.517Z,24.50
2023-03-10T06:56:27.749Z,22.60
2023-03-10T06:58:57.890Z,23.03
2023-03-10T07:01:30.310Z,23.60
2023-03-10T07:04:02.810Z,23.30
2023-03-10T07:06:30.976Z,22.53
2023-03-10T07:09:00.860Z,22.33
2023-03-10T07:11:29.372Z,22.57
2023-03-10T07:13:57.847Z,22.60
2023-03-10T07:16:25.943Z,23.43
2023-03-10T07:18:53.970Z,22.63
2023-03-10T07:21:23.049Z,23.23
2023-03-10T07:23:51.631Z,22.87
2023-03-10T07:26:21.320Z,20.80
2023-03-10T07:28:49.671Z,21.70
2023-03-10T07:31:18.491Z,22.83
2023-03-10T07:33:46.710Z,21.70
2023-03-10T07:36:16.911Z,22.70
2023-03-10T07:38:45.542Z,21.87
2023-03-10T07:41:16.489Z,22.57
2023-03-10T07:43:46.233Z,21.90
2023-03-10T07:46:18.038Z,21.90
2023-03-10T07:48:46.372Z,21.57
2023-03-10T07:51:25.848Z,21.47
2023-03-10T07:53:54.407Z,21.37
2023-03-10T07:56:22.705Z,20.40
2023-03-10T07:58:52.184Z,21.33
2023-03-10T08:01:22.276Z,21.70
2023-03-10T08:03:50.483Z,21.43
2023-03-10T08:06:20.515Z,21.87
2023-03-10T08:08:48.570Z,21.57
2023-03-10T08:11:16.878Z,20.27
2023-03-10T08:13:47.726Z,21.10
2023-03-10T08:16:22.210Z,20.83
2023-03-10T08:18:51.405Z,20.70
2023-03-10T08:21:19.388Z,21.10
2023-03-10T08:23:47.685Z,21.07
2023-03-10T08:26:18.599Z,20.70
2023-03-10T08:28:47.161Z,20.77
2023-03-10T08:31:18.941Z,20.27
2023-03-10T08:33:48.193Z,20.53
2023-03-10T08:36:18.603Z,20.97
2023-03-10T08:38:49.089Z,19.50
2023-03-10T08:41:19.435Z,20.13
2023-03-10T08:43:49.458Z,19.70
2023-03-10T08:46:20.347Z,20.33
2023-03-10T08:48:51.438Z,19.60
2023-03-10T08:51:20.562Z,19.97
2023-03-10T08:53:51.589Z,20.37
2023-03-10T08:56:22.152Z,19.80
2023-03-10T08:58:59.266Z,20.63
2023-03-10T09:01:31.189Z,20.13
2023-03-10T09:04:00.199Z,19.67
2023-03-10T09:06:29.140Z,20.13
2023-03-10T09:08:57.674Z,19.77
2023-03-10T09:11:30.273Z,19.00
2023-03-10T09:13:59.750Z,19.30
2023-03-10T09:16:32.606Z,20.87
2023-03-10T09:19:01.929Z,20.50
2023-03-10T09:21:34.332Z,19.43
2023-03-10T09:24:03.232Z,19.50
2023-03-10T09:26:32.198Z,19.30
2023-03-10T09:29:00.522Z,18.93
2023-03-10T09:31:33.489Z,19.53
2023-03-10T09:34:02.161Z,19.00
2023-03-10T09:36:31.014Z,19.77
2023-03-10T09:39:00.127Z,19.27
2023-03-10T09:41:49.080Z,19.27
2023-03-10T09:44:32.200Z,19.30
2023-03-10T09:47:19.661Z,18.83
2023-03-10T09:49:56.030Z,18.93
2023-03-10T09:52:30.582Z,17.83
2023-03-10T09:55:03.704Z,17.47
2023-03-10T09:57:31.788Z,18.03
2023-03-10T10:00:05.657Z,18.60
2023-03-10T10:02:42.054Z,18.80
2023-03-10T10:05:17.343Z,19.20
2023-03-10T10:07:48.398Z,18.50
2023-03-10T10:10:19.956Z,18.47
2023-03-10T10:12:52.648Z,18.50
2023-03-10T10:15:25.583Z,19.30
2023-03-10T10:18:18.576Z,19.17
2023-03-10T10:20:51.150Z,19.03
2023-03-10T10:23:29.128Z,19.10
2023-03-10T10:26:01.560Z,18.93
2023-03-10T10:28:41.714Z,18.33
2023-03-10T10:31:16.748Z,18.17
2023-03-10T10:34:02.175Z,19.23
2023-03-10T10:36:32.989Z,18.03
2023-03-10T10:39:02.342Z,18.50
2023-03-10T10:41:32.242Z,18.87
2023-03-10T10:44:10.364Z,19.20
2023-03-10T10:46:38.800Z,18.93
2023-03-10T10:49:23.602Z,19.47
2023-03-10T10:52:01.974Z,19.27
2023-03-10T10:54:40.158Z,19.13
2023-03-10T10:57:19.652Z,18.93
2023-03-10T10:59:53.430Z,18.60
2023-03-10T11:02:34.952Z,19.27
2023-03-10T11:05:17.230Z,19.63
2023-03-10T11:07:45.903Z,19.23
2023-03-10T11:10:19.316Z,19.83
2023-03-10T11:13:09.577Z,19.53
2023-03-10T11:15:42.070Z,19.87
2023-03-10T11:18:21.594Z,19.63
2023-03-10T11:20:57.191Z,19.27
2023-03-10T11:23:32.152Z,18.97
2023-03-10T11:26:07.499Z,18.63
2023-03-10T11:28:46.575Z,18.10
2023-03-10T11:31:27.168Z,18.87
2023-03-10T11:34:04.753Z,18.87
2023-03-10T11:36:55.451Z,18.67
2023-03-10T11:39:39.264Z,19.37
2023-03-10T11:42:15.321Z,19.40
2023-03-10T11:44:52.478Z,19.40
2023-03-10T11:47:33.826Z,19.50
2023-03-10T11:50:15.208Z,20.00
2023-03-10T11:52:46.359Z,20.53
2023-03-10T11:55:21.274Z,21.17
2023-03-10T11:57:54.394Z,20.77
2023-03-10T12:00:29.580Z,21.13
2023-03-10T12:03:14.775Z,20.17
2023-03-10T12:05:51.610Z,19.43
2023-03-10T12:08:24.657Z,20.60
2023-03-10T12:10:59.158Z,20.70
2023-03-10T12:13:30.096Z,21.53
2023-03-10T12:16:01.785Z,22.20
2023-03-10T12:18:30.488Z,23.17
2023-03-10T12:21:16.794Z,22.43
2023-03-10T12:23:47.491Z,22.40
2023-03-10T12:26:16.012Z,22.90
2023-03-10T12:28:44.796Z,23.23
2023-03-10T12:31:49.066Z,22.83
2023-03-10T12:34:37.950Z,22.90
2023-03-10T12:37:10.136Z,22.50
2023-03-10T12:39:42.383Z,23.17
2023-03-10T12:43:02.362Z,24.03
2023-03-10T12:45:56.508Z,23.53
2023-03-10T12:48:25.325Z,23.93
2023-03-10T12:50:59.479Z,23.80
2023-03-10T12:53:36.032Z,23.20
2023-03-10T12:56:22.214Z,23.23
2023-03-10T12:58:57.275Z,23.37
2023-03-10T13:01:29.614Z,22.07
2023-03-10T13:04:33.975Z,23.53
2023-03-10T13:07:20.054Z,23.20
2023-03-10T13:10:06.209Z,23.07
2023-03-10T13:12:50.702Z,23.60
2023-03-10T13:15:25.063Z,23.90
2023-03-10T13:17:59.974Z,24.60
2023-03-10T13:20:29.351Z,24.63
2023-03-10T13:22:59.752Z,24.07
2023-03-10T13:25:28.654Z,25.00
2023-03-10T13:27:58.092Z,24.67
2023-03-10T13:30:28.058Z,25.10
2023-03-10T13:32:58.706Z,25.77
2023-03-10T13:35:31.340Z,26.00
2023-03-10T13:38:07.860Z,25.20
2023-03-10T13:40:37.415Z,27.00
2023-03-10T13:43:16.884Z,26.40
2023-03-10T13:45:45.181Z,26.27
2023-03-10T13:48:15.000Z,25.67
2023-03-10T13:50:43.070Z,23.97
2023-03-10T13:53:25.694Z,23.13
2023-03-10T13:55:53.857Z,23.50
2023-03-10T13:58:23.356Z,21.87
2023-03-10T14:00:54.530Z,22.97
2023-03-10T14:03:22.903Z,24.70
2023-03-10T14:05:51.536Z,25.03
2023-03-10T14:08:27.708Z,24.43
2023-03-10T14:11:11.512Z,23.90
2023-03-10T14:13:46.200Z,23.57
2023-03-10T14:16:14.912Z,23.53
2023-03-10T14:18:44.470Z,22.33
2023-03-10T14:21:33.133Z,21.70
2023-03-10T14:24:06.558Z,22.47
2023-03-10T14:26:35.142Z,22.17
2023-03-10T14:29:11.930Z,22.73
2023-03-10T14:31:39.908Z,22.97
2023-03-10T14:34:08.057Z,23.00
2023-03-10T14:36:36.152Z,22.90
2023-03-10T14:39:04.357Z,23.30
2023-03-10T14:41:32.728Z,22.03
2023-03-10T14:44:01.748Z,21.73
2023-03-10T14:46:33.138Z,22.63
2023-03-10T14:49:01.295Z,22.60
2023-03-10T14:51:35.997Z,21.33
2023-03-10T14:54:04.903Z,20.97
2023-03-10T14:56:34.439Z,21.43
2023-03-10T14:59:02.907Z,20.63
2023-03-10T15:01:32.506Z,21.07
2023-03-10T15:04:00.872Z,19.93
2023-03-10T15:06:29.100Z,17.77
2023-03-10T15:08:57.281Z,16.40
2023-03-10T15:11:36.537Z,16.33
2023-03-10T15:14:12.655Z,15.53
2023-03-10T15:16:42.949Z,14.53
2023-03-10T15:19:18.499Z,15.57
2023-03-10T15:21:46.886Z,15.33
2023-03-10T15:24:15.023Z,15.47
2023-03-10T15:27:53.433Z,15.80
2023-03-10T15:30:24.148Z,19.93
2023-03-10T15:32:57.031Z,15.47
2023-03-10T15:35:27.167Z,15.97
2023-03-10T15:37:55.643Z,15.90
2023-03-10T15:40:27.356Z,17.43
2023-03-10T15:42:57.942Z,17.43
2023-03-10T15:45:27.204Z,16.90
2023-03-10T15:47:58.192Z,17.90
2023-03-10T15:50:27.650Z,18.37
2023-03-10T15:52:58.422Z,18.50
2023-03-10T15:55:27.692Z,17.37
2023-03-10T15:57:56.703Z,17.90
2023-03-10T16:00:28.445Z,17.83
2023-03-10T16:02:59.616Z,18.50
2023-03-10T16:05:33.021Z,18.70
2023-03-10T16:08:06.821Z,18.63
2023-03-10T16:10:36.078Z,19.47
2023-03-10T16:13:19.511Z,18.70
2023-03-10T16:16:19.627Z,18.30
2023-03-10T16:18:53.232Z,17.70
2023-03-10T16:21:37.007Z,17.73
2023-03-10T16:24:08.988Z,17.43
2023-03-10T16:26:39.441Z,17.60
2023-03-10T16:29:07.988Z,15.60
2023-03-10T16:31:36.453Z,16.07
2023-03-10T16:35:18.502Z,17.40
2023-03-10T16:37:24.342Z,17.70
2023-03-10T16:39:59.789Z,17.87
2023-03-10T16:47:13.199Z,17.70
2023-03-10T16:49:44.318Z,17.77
2023-03-10T16:52:50.088Z,18.07
2023-03-10T16:55:37.534Z,18.50
2023-03-10T16:59:13.583Z,19.60
2023-03-10T17:02:02.340Z,19.90
2023-03-10T17:04:52.450Z,19.67
2023-03-10T17:07:36.369Z,19.17
2023-03-10T17:10:31.421Z,18.37
2023-03-10T17:21:10.533Z,17.83
2023-03-10T17:23:39.217Z,17.70
2023-03-10T17:26:21.075Z,18.97
2023-03-10T17:28:53.050Z,18.83
2023-03-10T17:31:36.705Z,18.77
2023-03-10T17:34:11.647Z,19.23
2023-03-10T17:36:52.158Z,18.37
2023-03-10T17:40:09.247Z,17.20
2023-03-10T17:43:36.394Z,17.23
2023-03-10T17:46:09.440Z,16.63
2023-03-10T17:53:44.762Z,19.30
2023-03-10T17:57:28.362Z,17.37
2023-03-10T18:00:02.168Z,17.47
2023-03-10T18:07:02.221Z,17.77
2023-03-10T18:17:38.537Z,21.70
2023-03-10T18:37:52.878Z,26.57
2023-03-10T18:40:24.882Z,25.17
2023-03-10T18:50:24.976Z,16.23
2023-03-10T18:53:30.422Z,17.67
2023-03-10T19:00:51.712Z,16.70
2023-03-10T19:03:34.920Z,17.00
2023-03-10T19:06:42.410Z,15.57
2023-03-10T19:12:36.427Z,14.60
2023-03-10T19:15:13.816Z,13.20
2023-03-10T19:18:38.688Z,8.87
2023-03-10T19:21:07.414Z,11.53
2023-03-10T19:24:03.137Z,9.53
2023-03-10T19:26:54.476Z,5.97
2023-03-10T19:37:22.568Z,9.17
2023-03-10T19:55:26.628Z,4.37
2023-03-10T19:57:56.567Z,6.97
2023-03-10T20:00:31.091Z,10.27
2023-03-10T20:02:59.753Z,12.80
2023-03-10T20:05:27.971Z,7.37
2023-03-10T20:07:56.138Z,8.90
2023-03-10T20:10:25.613Z,8.67
2023-03-10T20:12:53.716Z,5.60
2023-03-10T20:15:21.886Z,10.13
2023-03-10T20:17:50.003Z,6.97
2023-03-10T20:20:20.290Z,10.37
2023-03-10T20:22:50.372Z,6.10
2023-03-10T20:25:21.246Z,4.17
2023-03-10T20:27:52.935Z,8.43
2023-03-10T20:30:23.211Z,8.63
2023-03-10T20:32:51.848Z,6.57
2023-03-10T20:35:23.397Z,6.50
2023-03-10T20:37:51.584Z,4.80
2023-03-10T20:40:24.027Z,5.13
2023-03-10T20:43:00.367Z,10.33
2023-03-10T20:45:30.214Z,6.60
2023-03-10T20:47:58.659Z,9.63
2023-03-10T20:50:27.309Z,6.23
2023-03-10T20:52:58.587Z,4.50
2023-03-10T20:55:29.178Z,5.53
2023-03-10T20:58:01.714Z,6.10
2023-03-10T21:00:34.645Z,6.53
2023-03-10T21:03:02.715Z,8.30
2023-03-10T21:05:30.989Z,7.13
2023-03-10T21:07:59.216Z,6.40
2023-03-10T21:10:27.787Z,6.00
2023-03-10T21:12:56.116Z,4.63
2023-03-10T21:15:25.440Z,6.73
2023-03-10T21:17:55.066Z,6.83
2023-03-10T21:20:24.543Z,8.53
2023-03-10T21:22:54.413Z,8.37
2023-03-10T21:25:25.193Z,5.13
2023-03-10T21:28:00.159Z,3.07
2023-03-10T21:30:30.677Z,4.70
2023-03-10T21:33:00.818Z,5.63
2023-03-10T21:35:31.811Z,5.87
2023-03-10T21:37:59.903Z,10.90
2023-03-10T21:40:27.906Z,8.87
2023-03-10T21:42:55.924Z,8.87
2023-03-10T21:45:25.961Z,6.57
2023-03-10T21:47:54.165Z,4.43
2023-03-10T21:50:23.998Z,4.50
2023-03-10T21:52:52.610Z,4.67
2023-03-10T21:55:28.842Z,5.43
2023-03-10T21:57:58.353Z,5.37
2023-03-10T22:00:27.015Z,9.70
2023-03-10T22:02:55.241Z,13.40
2023-03-10T22:05:25.214Z,7.10
2023-03-10T22:07:58.138Z,4.13
2023-03-10T22:10:27.328Z,7.07
2023-03-10T22:13:04.380Z,5.40
2023-03-10T22:15:32.633Z,7.03
2023-03-10T22:18:00.796Z,7.27
2023-03-10T22:20:32.368Z,5.33
2023-03-10T22:23:01.666Z,5.80
2023-03-10T22:25:30.283Z,5.10
2023-03-10T22:27:58.465Z,7.23
2023-03-10T22:30:27.827Z,3.83
2023-03-10T22:32:56.296Z,8.27
2023-03-10T22:35:24.592Z,4.47
2023-03-10T22:37:54.802Z,6.30
2023-03-10T22:40:25.154Z,5.93
2023-03-10T22:42:53.666Z,16.93
2023-03-10T22:45:24.156Z,6.90
2023-03-10T22:47:56.719Z,3.07
2023-03-10T22:50:27.811Z,4.40
2023-03-10T22:52:57.455Z,8.13
2023-03-10T22:55:26.845Z,8.47
2023-03-10T22:57:56.528Z,4.17
2023-03-10T23:00:24.654Z,7.43
2023-03-10T23:02:53.967Z,7.53
2023-03-10T23:05:22.997Z,4.93
2023-03-10T23:07:51.872Z,3.33
2023-03-10T23:10:23.779Z,4.73
2023-03-10T23:12:52.293Z,6.33
2023-03-10T23:15:26.013Z,3.03
2023-03-10T23:17:54.743Z,7.93
2023-03-10T23:20:27.021Z,9.67
2023-03-10T23:22:56.596Z,4.17
2023-03-10T23:25:29.275Z,4.40
2023-03-10T23:27:58.142Z,4.47
2023-03-10T23:30:26.340Z,3.93
2023-03-10T23:32:54.891Z,4.73
2023-03-10T23:35:25.834Z,5.00
2023-03-10T23:37:54.318Z,7.40
2023-03-10T23:40:27.986Z,6.63
2023-03-10T23:43:01.135Z,1.93
2023-03-10T23:45:31.425Z,4.83
2023-03-10T23:48:04.813Z,6.93
2023-03-10T23:50:34.498Z,4.10
2023-03-10T23:53:02.773Z,4.23
2023-03-10T23:55:34.464Z,5.40
2023-03-10T23:58:02.707Z,4.43
